Tres Forquilhas, Brazil
Current Conditions -  °F | °C
As of 3:00 PM on Friday 28 Nov 2014 (Local Time) from SBCO Reporting Station
Few Clouds Few Clouds  
Wind Chill: 82°   Ceiling: Unl
Heat Index: 83°   Visibility: 6mi
Dew Point: 63°   Wind: 13mph
Humidity: 51%   Direction: 150°SSE
Pressure: 30"   Gusts: NA
Location:  29.59°S, 50.07°W
Report Text: SBCO 281700Z 15011KT 9999 FEW040 28/17 Q1016
Loading
Personal Weather Stations






























Interactive Weather Map New forecast layout! Learn more

10-Day Weather Forecast

Advertisements
Track Severe Weather on mobile